sensor_id;sensor_type;location;lat;lon;timestamp;P1;durP1;ratioP1;P2;durP2;ratioP2
19733;SDS011;10018;51.230;7.860;2023-11-21T00:01:22;17.20;;;8.70;;
19733;SDS011;10018;51.230;7.860;2023-11-21T00:03:48;19.10;;;9.40;;
19733;SDS011;10018;51.230;7.860;2023-11-21T00:06:13;16.07;;;8.53;;
19733;SDS011;10018;51.230;7.860;2023-11-21T00:08:39;17.17;;;7.73;;
19733;SDS011;10018;51.230;7.860;2023-11-21T00:11:05;16.40;;;8.07;;
19733;SDS011;10018;51.230;7.860;2023-11-21T00:13:31;16.67;;;8.70;;
19733;SDS011;10018;51.230;7.860;2023-11-21T00:15:57;18.03;;;8.90;;
19733;SDS011;10018;51.230;7.860;2023-11-21T00:18:25;15.67;;;7.70;;
19733;SDS011;10018;51.230;7.860;2023-11-21T00:20:51;18.60;;;8.83;;
19733;SDS011;10018;51.230;7.860;2023-11-21T00:23:17;23.50;;;10.57;;
19733;SDS011;10018;51.230;7.860;2023-11-21T00:25:43;23.47;;;10.87;;
19733;SDS011;10018;51.230;7.860;2023-11-21T00:28:11;20.43;;;11.07;;
19733;SDS011;10018;51.230;7.860;2023-11-21T00:30:37;20.97;;;10.40;;
19733;SDS011;10018;51.230;7.860;2023-11-21T00:33:03;21.57;;;11.07;;
19733;SDS011;10018;51.230;7.860;2023-11-21T00:35:29;22.90;;;11.57;;
19733;SDS011;10018;51.230;7.860;2023-11-21T00:37:54;24.07;;;10.87;;
19733;SDS011;10018;51.230;7.860;2023-11-21T00:40:21;22.43;;;10.87;;
19733;SDS011;10018;51.230;7.860;2023-11-21T00:42:47;20.17;;;10.53;;
19733;SDS011;10018;51.230;7.860;2023-11-21T00:45:12;18.30;;;10.80;;
19733;SDS011;10018;51.230;7.860;2023-11-21T00:47:38;21.30;;;11.20;;
19733;SDS011;10018;51.230;7.860;2023-11-21T00:50:04;26.60;;;11.57;;
19733;SDS011;10018;51.230;7.860;2023-11-21T00:52:31;24.67;;;11.67;;
19733;SDS011;10018;51.230;7.860;2023-11-21T00:54:57;22.37;;;11.20;;
19733;SDS011;10018;51.230;7.860;2023-11-21T00:57:25;21.27;;;10.83;;
19733;SDS011;10018;51.230;7.860;2023-11-21T00:59:51;20.77;;;10.93;;
19733;SDS011;10018;51.230;7.860;2023-11-21T01:02:17;28.30;;;11.30;;
19733;SDS011;10018;51.230;7.860;2023-11-21T01:04:44;26.33;;;12.50;;
19733;SDS011;10018;51.230;7.860;2023-11-21T01:07:10;25.33;;;11.97;;
19733;SDS011;10018;51.230;7.860;2023-11-21T01:09:35;27.13;;;13.50;;
19733;SDS011;10018;51.230;7.860;2023-11-21T01:12:01;31.37;;;14.20;;
19733;SDS011;10018;51.230;7.860;2023-11-21T01:14:29;28.00;;;13.70;;
19733;SDS011;10018;51.230;7.860;2023-11-21T01:16:54;31.27;;;14.77;;
19733;SDS011;10018;51.230;7.860;2023-11-21T01:19:22;28.17;;;14.90;;
19733;SDS011;10018;51.230;7.860;2023-11-21T01:21:48;27.57;;;14.70;;
19733;SDS011;10018;51.230;7.860;2023-11-21T01:24:14;31.00;;;15.50;;
19733;SDS011;10018;51.230;7.860;2023-11-21T01:26:39;29.03;;;14.57;;
19733;SDS011;10018;51.230;7.860;2023-11-21T01:29:05;30.80;;;15.87;;
19733;SDS011;10018;51.230;7.860;2023-11-21T01:31:33;33.03;;;15.77;;
19733;SDS011;10018;51.230;7.860;2023-11-21T01:33:59;32.77;;;14.77;;
19733;SDS011;10018;51.230;7.860;2023-11-21T01:36:29;34.80;;;17.03;;
19733;SDS011;10018;51.230;7.860;2023-11-21T01:38:57;34.60;;;16.10;;
19733;SDS011;10018;51.230;7.860;2023-11-21T01:41:24;29.80;;;15.57;;
19733;SDS011;10018;51.230;7.860;2023-11-21T01:43:53;29.00;;;14.37;;
19733;SDS011;10018;51.230;7.860;2023-11-21T01:46:20;31.97;;;15.20;;
19733;SDS011;10018;51.230;7.860;2023-11-21T01:48:47;31.00;;;14.40;;
19733;SDS011;10018;51.230;7.860;2023-11-21T01:51:13;27.90;;;14.83;;
19733;SDS011;10018;51.230;7.860;2023-11-21T01:53:42;27.47;;;14.07;;
19733;SDS011;10018;51.230;7.860;2023-11-21T01:56:10;27.40;;;14.00;;
19733;SDS011;10018;51.230;7.860;2023-11-21T01:58:36;30.10;;;14.70;;
19733;SDS011;10018;51.230;7.860;2023-11-21T02:01:02;27.90;;;13.80;;
19733;SDS011;10018;51.230;7.860;2023-11-21T02:03:27;29.47;;;14.27;;
19733;SDS011;10018;51.230;7.860;2023-11-21T02:05:53;25.73;;;13.80;;
19733;SDS011;10018;51.230;7.860;2023-11-21T02:08:19;26.90;;;14.30;;
19733;SDS011;10018;51.230;7.860;2023-11-21T02:10:45;25.10;;;13.30;;
19733;SDS011;10018;51.230;7.860;2023-11-21T02:13:12;29.63;;;13.13;;
19733;SDS011;10018;51.230;7.860;2023-11-21T02:15:38;30.53;;;14.20;;
19733;SDS011;10018;51.230;7.860;2023-11-21T02:18:04;28.30;;;14.90;;
19733;SDS011;10018;51.230;7.860;2023-11-21T02:20:32;27.27;;;14.37;;
19733;SDS011;10018;51.230;7.860;2023-11-21T02:23:00;27.07;;;14.43;;
19733;SDS011;10018;51.230;7.860;2023-11-21T02:25:26;27.73;;;14.73;;
19733;SDS011;10018;51.230;7.860;2023-11-21T02:27:58;29.47;;;15.97;;
19733;SDS011;10018;51.230;7.860;2023-11-21T02:30:28;29.50;;;14.33;;
19733;SDS011;10018;51.230;7.860;2023-11-21T02:32:55;29.07;;;13.87;;
19733;SDS011;10018;51.230;7.860;2023-11-21T02:35:24;28.30;;;14.97;;
19733;SDS011;10018;51.230;7.860;2023-11-21T02:37:53;29.73;;;14.90;;
19733;SDS011;10018;51.230;7.860;2023-11-21T02:40:21;26.10;;;14.07;;
19733;SDS011;10018;51.230;7.860;2023-11-21T02:42:47;25.90;;;14.77;;
19733;SDS011;10018;51.230;7.860;2023-11-21T02:45:14;27.87;;;14.13;;
19733;SDS011;10018;51.230;7.860;2023-11-21T02:47:41;30.00;;;14.10;;
19733;SDS011;10018;51.230;7.860;2023-11-21T02:50:08;25.60;;;13.77;;
19733;SDS011;10018;51.230;7.860;2023-11-21T02:52:34;35.07;;;15.53;;
19733;SDS011;10018;51.230;7.860;2023-11-21T02:55:01;26.50;;;14.43;;
19733;SDS011;10018;51.230;7.860;2023-11-21T02:57:27;26.60;;;13.67;;
19733;SDS011;10018;51.230;7.860;2023-11-21T02:59:55;30.67;;;15.37;;
19733;SDS011;10018;51.230;7.860;2023-11-21T03:02:21;27.50;;;14.33;;
19733;SDS011;10018;51.230;7.860;2023-11-21T03:04:47;34.53;;;16.20;;
19733;SDS011;10018;51.230;7.860;2023-11-21T03:07:18;35.00;;;15.43;;
19733;SDS011;10018;51.230;7.860;2023-11-21T03:09:44;30.03;;;15.90;;
19733;SDS011;10018;51.230;7.860;2023-11-21T03:12:10;29.03;;;16.07;;
19733;SDS011;10018;51.230;7.860;2023-11-21T03:14:37;31.17;;;16.07;;
19733;SDS011;10018;51.230;7.860;2023-11-21T03:17:03;29.57;;;15.20;;
19733;SDS011;10018;51.230;7.860;2023-11-21T03:19:29;28.67;;;14.57;;
19733;SDS011;10018;51.230;7.860;2023-11-21T03:21:55;32.60;;;15.27;;
19733;SDS011;10018;51.230;7.860;2023-11-21T03:24:21;34.50;;;16.40;;
19733;SDS011;10018;51.230;7.860;2023-11-21T03:26:47;30.47;;;15.57;;
19733;SDS011;10018;51.230;7.860;2023-11-21T03:29:13;36.77;;;16.00;;
19733;SDS011;10018;51.230;7.860;2023-11-21T03:31:39;35.47;;;16.43;;
19733;SDS011;10018;51.230;7.860;2023-11-21T03:34:06;32.60;;;15.37;;
19733;SDS011;10018;51.230;7.860;2023-11-21T03:36:34;30.90;;;15.27;;
19733;SDS011;10018;51.230;7.860;2023-11-21T03:39:02;30.23;;;15.17;;
19733;SDS011;10018;51.230;7.860;2023-11-21T03:41:27;33.57;;;15.87;;
19733;SDS011;10018;51.230;7.860;2023-11-21T03:43:53;36.50;;;15.37;;
19733;SDS011;10018;51.230;7.860;2023-11-21T03:46:18;29.63;;;15.63;;
19733;SDS011;10018;51.230;7.860;2023-11-21T03:48:44;33.00;;;16.03;;
19733;SDS011;10018;51.230;7.860;2023-11-21T03:51:09;31.80;;;15.47;;
19733;SDS011;10018;51.230;7.860;2023-11-21T03:53:35;28.77;;;14.73;;
19733;SDS011;10018;51.230;7.860;2023-11-21T03:56:02;31.37;;;14.97;;
19733;SDS011;10018;51.230;7.860;2023-11-21T03:58:28;29.80;;;15.13;;
19733;SDS011;10018;51.230;7.860;2023-11-21T04:00:56;34.77;;;16.33;;
19733;SDS011;10018;51.230;7.860;2023-11-21T04:03:22;37.43;;;16.13;;
19733;SDS011;10018;51.230;7.860;2023-11-21T04:05:47;31.97;;;15.50;;
19733;SDS011;10018;51.230;7.860;2023-11-21T04:08:15;35.87;;;16.60;;
19733;SDS011;10018;51.230;7.860;2023-11-21T04:10:40;40.07;;;16.67;;
19733;SDS011;10018;51.230;7.860;2023-11-21T04:13:08;34.00;;;16.17;;
19733;SDS011;10018;51.230;7.860;2023-11-21T04:15:36;31.47;;;16.60;;
19733;SDS011;10018;51.230;7.860;2023-11-21T04:18:02;35.67;;;16.60;;
19733;SDS011;10018;51.230;7.860;2023-11-21T04:20:28;31.73;;;15.83;;
19733;SDS011;10018;51.230;7.860;2023-11-21T04:22:53;30.53;;;15.10;;
19733;SDS011;10018;51.230;7.860;2023-11-21T04:25:21;32.93;;;15.37;;
19733;SDS011;10018;51.230;7.860;2023-11-21T04:27:48;30.37;;;15.80;;
19733;SDS011;10018;51.230;7.860;2023-11-21T04:30:13;33.33;;;15.70;;
19733;SDS011;10018;51.230;7.860;2023-11-21T04:32:39;32.70;;;15.50;;
19733;SDS011;10018;51.230;7.860;2023-11-21T04:35:06;30.37;;;14.83;;
19733;SDS011;10018;51.230;7.860;2023-11-21T04:37:33;34.37;;;15.60;;
19733;SDS011;10018;51.230;7.860;2023-11-21T04:39:59;32.50;;;15.67;;
19733;SDS011;10018;51.230;7.860;2023-11-21T04:42:24;33.53;;;15.57;;
19733;SDS011;10018;51.230;7.860;2023-11-21T04:44:50;34.13;;;15.80;;
19733;SDS011;10018;51.230;7.860;2023-11-21T04:47:17;32.73;;;16.17;;
19733;SDS011;10018;51.230;7.860;2023-11-21T04:49:45;33.60;;;17.57;;
19733;SDS011;10018;51.230;7.860;2023-11-21T04:52:14;32.27;;;16.50;;
19733;SDS011;10018;51.230;7.860;2023-11-21T04:54:40;29.40;;;15.17;;
19733;SDS011;10018;51.230;7.860;2023-11-21T04:57:05;30.00;;;14.63;;
19733;SDS011;10018;51.230;7.860;2023-11-21T04:59:32;29.37;;;15.17;;
19733;SDS011;10018;51.230;7.860;2023-11-21T05:01:58;31.40;;;15.30;;
19733;SDS011;10018;51.230;7.860;2023-11-21T05:04:25;30.27;;;16.40;;
19733;SDS011;10018;51.230;7.860;2023-11-21T05:06:50;29.77;;;14.53;;
19733;SDS011;10018;51.230;7.860;2023-11-21T05:09:18;24.57;;;13.67;;
19733;SDS011;10018;51.230;7.860;2023-11-21T05:11:44;28.63;;;15.70;;
19733;SDS011;10018;51.230;7.860;2023-11-21T05:14:09;29.83;;;15.50;;
19733;SDS011;10018;51.230;7.860;2023-11-21T05:16:35;30.83;;;16.23;;
19733;SDS011;10018;51.230;7.860;2023-11-21T05:19:03;28.00;;;13.67;;
19733;SDS011;10018;51.230;7.860;2023-11-21T05:21:30;26.33;;;14.07;;
19733;SDS011;10018;51.230;7.860;2023-11-21T05:23:58;29.50;;;15.20;;
19733;SDS011;10018;51.230;7.860;2023-11-21T05:26:24;27.73;;;14.23;;
19733;SDS011;10018;51.230;7.860;2023-11-21T05:28:52;26.43;;;13.23;;
19733;SDS011;10018;51.230;7.860;2023-11-21T05:31:18;26.50;;;13.40;;
19733;SDS011;10018;51.230;7.860;2023-11-21T05:33:44;25.40;;;13.77;;
19733;SDS011;10018;51.230;7.860;2023-11-21T05:36:10;35.50;;;14.67;;
19733;SDS011;10018;51.230;7.860;2023-11-21T05:38:35;32.53;;;15.60;;
19733;SDS011;10018;51.230;7.860;2023-11-21T05:41:04;32.97;;;15.00;;
19733;SDS011;10018;51.230;7.860;2023-11-21T05:43:30;31.63;;;15.30;;
19733;SDS011;10018;51.230;7.860;2023-11-21T05:45:57;31.27;;;15.37;;
19733;SDS011;10018;51.230;7.860;2023-11-21T05:48:22;25.60;;;13.50;;
19733;SDS011;10018;51.230;7.860;2023-11-21T05:50:50;28.80;;;14.70;;
19733;SDS011;10018;51.230;7.860;2023-11-21T05:53:16;28.57;;;14.20;;
19733;SDS011;10018;51.230;7.860;2023-11-21T05:55:44;26.23;;;12.97;;
19733;SDS011;10018;51.230;7.860;2023-11-21T05:58:12;27.43;;;13.03;;
19733;SDS011;10018;51.230;7.860;2023-11-21T06:00:41;24.77;;;12.40;;
19733;SDS011;10018;51.230;7.860;2023-11-21T06:03:09;22.10;;;11.50;;
19733;SDS011;10018;51.230;7.860;2023-11-21T06:05:35;23.70;;;12.00;;
19733;SDS011;10018;51.230;7.860;2023-11-21T06:08:03;24.40;;;12.10;;
19733;SDS011;10018;51.230;7.860;2023-11-21T06:10:28;24.30;;;12.37;;
19733;SDS011;10018;51.230;7.860;2023-11-21T06:12:54;26.57;;;12.30;;
19733;SDS011;10018;51.230;7.860;2023-11-21T06:15:22;26.17;;;13.73;;
19733;SDS011;10018;51.230;7.860;2023-11-21T06:17:48;30.07;;;16.10;;
19733;SDS011;10018;51.230;7.860;2023-11-21T06:20:17;30.80;;;14.43;;
19733;SDS011;10018;51.230;7.860;2023-11-21T06:22:44;27.27;;;13.77;;
19733;SDS011;10018;51.230;7.860;2023-11-21T06:25:11;27.33;;;13.40;;
19733;SDS011;10018;51.230;7.860;2023-11-21T06:27:41;28.47;;;13.77;;
19733;SDS011;10018;51.230;7.860;2023-11-21T06:30:11;28.57;;;15.57;;
19733;SDS011;10018;51.230;7.860;2023-11-21T06:32:39;31.77;;;15.43;;
19733;SDS011;10018;51.230;7.860;2023-11-21T06:35:05;29.43;;;14.10;;
19733;SDS011;10018;51.230;7.860;2023-11-21T06:37:31;29.93;;;15.33;;
19733;SDS011;10018;51.230;7.860;2023-11-21T06:39:58;35.47;;;16.00;;
19733;SDS011;10018;51.230;7.860;2023-11-21T06:42:24;31.00;;;15.77;;
19733;SDS011;10018;51.230;7.860;2023-11-21T06:44:54;26.37;;;13.50;;
19733;SDS011;10018;51.230;7.860;2023-11-21T06:47:22;31.37;;;15.20;;
19733;SDS011;10018;51.230;7.860;2023-11-21T06:49:51;31.20;;;15.30;;
19733;SDS011;10018;51.230;7.860;2023-11-21T06:52:17;30.93;;;14.53;;
19733;SDS011;10018;51.230;7.860;2023-11-21T06:54:43;31.07;;;15.70;;
19733;SDS011;10018;51.230;7.860;2023-11-21T06:57:10;27.53;;;14.17;;
19733;SDS011;10018;51.230;7.860;2023-11-21T06:59:36;29.27;;;15.03;;
19733;SDS011;10018;51.230;7.860;2023-11-21T07:02:01;30.40;;;14.37;;
19733;SDS011;10018;51.230;7.860;2023-11-21T07:04:27;29.87;;;16.90;;
19733;SDS011;10018;51.230;7.860;2023-11-21T07:06:53;30.63;;;15.67;;
19733;SDS011;10018;51.230;7.860;2023-11-21T07:09:21;33.03;;;14.63;;
19733;SDS011;10018;51.230;7.860;2023-11-21T07:11:50;29.57;;;14.20;;
19733;SDS011;10018;51.230;7.860;2023-11-21T07:14:18;25.70;;;13.73;;
19733;SDS011;10018;51.230;7.860;2023-11-21T07:16:47;30.90;;;13.33;;
19733;SDS011;10018;51.230;7.860;2023-11-21T07:19:13;25.40;;;13.57;;
19733;SDS011;10018;51.230;7.860;2023-11-21T07:21:39;28.17;;;14.17;;
19733;SDS011;10018;51.230;7.860;2023-11-21T07:24:07;31.47;;;14.37;;
19733;SDS011;10018;51.230;7.860;2023-11-21T07:26:34;34.70;;;15.60;;
19733;SDS011;10018;51.230;7.860;2023-11-21T07:29:03;32.60;;;15.43;;
19733;SDS011;10018;51.230;7.860;2023-11-21T07:31:29;29.60;;;15.30;;
19733;SDS011;10018;51.230;7.860;2023-11-21T07:33:56;35.37;;;15.27;;
19733;SDS011;10018;51.230;7.860;2023-11-21T07:36:22;36.57;;;17.33;;
19733;SDS011;10018;51.230;7.860;2023-11-21T07:38:48;33.53;;;15.80;;
19733;SDS011;10018;51.230;7.860;2023-11-21T07:41:15;32.17;;;16.40;;
19733;SDS011;10018;51.230;7.860;2023-11-21T07:43:42;32.40;;;16.20;;
19733;SDS011;10018;51.230;7.860;2023-11-21T07:46:11;39.93;;;17.87;;
19733;SDS011;10018;51.230;7.860;2023-11-21T07:48:38;32.40;;;17.80;;
19733;SDS011;10018;51.230;7.860;2023-11-21T07:51:04;39.63;;;18.33;;
19733;SDS011;10018;51.230;7.860;2023-11-21T07:53:31;37.10;;;19.93;;
19733;SDS011;10018;51.230;7.860;2023-11-21T07:56:00;42.23;;;19.53;;
19733;SDS011;10018;51.230;7.860;2023-11-21T07:58:28;38.57;;;18.20;;
19733;SDS011;10018;51.230;7.860;2023-11-21T08:00:54;43.87;;;19.20;;
19733;SDS011;10018;51.230;7.860;2023-11-21T08:03:19;41.30;;;20.63;;
19733;SDS011;10018;51.230;7.860;2023-11-21T08:05:46;43.03;;;20.90;;
19733;SDS011;10018;51.230;7.860;2023-11-21T08:08:12;41.33;;;21.17;;
19733;SDS011;10018;51.230;7.860;2023-11-21T08:10:40;41.60;;;21.77;;
19733;SDS011;10018;51.230;7.860;2023-11-21T08:13:07;39.00;;;20.53;;
19733;SDS011;10018;51.230;7.860;2023-11-21T08:15:34;44.87;;;20.53;;
19733;SDS011;10018;51.230;7.860;2023-11-21T08:18:00;38.97;;;19.23;;
19733;SDS011;10018;51.230;7.860;2023-11-21T08:20:26;40.43;;;19.00;;
19733;SDS011;10018;51.230;7.860;2023-11-21T08:22:52;38.93;;;18.83;;
19733;SDS011;10018;51.230;7.860;2023-11-21T08:25:18;43.70;;;19.37;;
19733;SDS011;10018;51.230;7.860;2023-11-21T08:27:45;36.73;;;17.87;;
19733;SDS011;10018;51.230;7.860;2023-11-21T08:30:11;36.60;;;16.57;;
19733;SDS011;10018;51.230;7.860;2023-11-21T08:32:39;39.57;;;17.83;;
19733;SDS011;10018;51.230;7.860;2023-11-21T08:35:07;37.57;;;17.43;;
19733;SDS011;10018;51.230;7.860;2023-11-21T08:37:33;39.93;;;17.87;;
19733;SDS011;10018;51.230;7.860;2023-11-21T08:40:02;38.47;;;18.60;;
19733;SDS011;10018;51.230;7.860;2023-11-21T08:42:34;38.77;;;18.83;;
19733;SDS011;10018;51.230;7.860;2023-11-21T08:45:00;36.43;;;17.53;;
19733;SDS011;10018;51.230;7.860;2023-11-21T08:47:28;43.53;;;18.50;;
19733;SDS011;10018;51.230;7.860;2023-11-21T08:49:54;37.20;;;17.70;;
19733;SDS011;10018;51.230;7.860;2023-11-21T08:52:19;33.67;;;16.70;;
19733;SDS011;10018;51.230;7.860;2023-11-21T08:54:47;33.53;;;17.40;;
19733;SDS011;10018;51.230;7.860;2023-11-21T08:57:22;33.77;;;16.53;;
19733;SDS011;10018;51.230;7.860;2023-11-21T08:59:48;35.87;;;16.90;;
19733;SDS011;10018;51.230;7.860;2023-11-21T09:02:13;34.07;;;16.73;;
19733;SDS011;10018;51.230;7.860;2023-11-21T09:04:41;33.00;;;17.67;;
19733;SDS011;10018;51.230;7.860;2023-11-21T09:07:09;36.63;;;17.33;;
19733;SDS011;10018;51.230;7.860;2023-11-21T09:09:35;36.20;;;17.10;;
19733;SDS011;10018;51.230;7.860;2023-11-21T09:12:00;35.60;;;17.60;;
19733;SDS011;10018;51.230;7.860;2023-11-21T09:14:26;29.53;;;15.50;;
19733;SDS011;10018;51.230;7.860;2023-11-21T09:16:52;35.40;;;15.23;;
19733;SDS011;10018;51.230;7.860;2023-11-21T09:19:17;36.47;;;17.37;;
19733;SDS011;10018;51.230;7.860;2023-11-21T09:21:43;31.60;;;15.70;;
19733;SDS011;10018;51.230;7.860;2023-11-21T09:24:08;36.30;;;16.03;;
19733;SDS011;10018;51.230;7.860;2023-11-21T09:26:34;31.07;;;15.37;;
19733;SDS011;10018;51.230;7.860;2023-11-21T09:29:00;32.30;;;16.20;;
19733;SDS011;10018;51.230;7.860;2023-11-21T09:31:27;31.40;;;15.47;;
19733;SDS011;10018;51.230;7.860;2023-11-21T09:33:52;29.77;;;15.67;;
19733;SDS011;10018;51.230;7.860;2023-11-21T09:36:18;32.97;;;17.27;;
19733;SDS011;10018;51.230;7.860;2023-11-21T09:38:43;32.77;;;16.90;;
19733;SDS011;10018;51.230;7.860;2023-11-21T09:41:11;35.77;;;16.20;;
19733;SDS011;10018;51.230;7.860;2023-11-21T09:43:49;33.57;;;16.83;;
19733;SDS011;10018;51.230;7.860;2023-11-21T09:46:20;29.20;;;15.63;;
19733;SDS011;10018;51.230;7.860;2023-11-21T09:48:50;33.57;;;16.80;;
19733;SDS011;10018;51.230;7.860;2023-11-21T09:51:18;30.13;;;16.47;;
19733;SDS011;10018;51.230;7.860;2023-11-21T09:53:49;36.37;;;17.67;;
19733;SDS011;10018;51.230;7.860;2023-11-21T09:56:18;34.20;;;16.63;;
19733;SDS011;10018;51.230;7.860;2023-11-21T09:58:50;31.47;;;16.40;;
19733;SDS011;10018;51.230;7.860;2023-11-21T10:01:18;33.53;;;16.30;;
19733;SDS011;10018;51.230;7.860;2023-11-21T10:03:45;33.63;;;16.80;;
19733;SDS011;10018;51.230;7.860;2023-11-21T10:06:12;32.40;;;16.03;;
19733;SDS011;10018;51.230;7.860;2023-11-21T10:08:41;32.60;;;15.73;;
19733;SDS011;10018;51.230;7.860;2023-11-21T10:11:08;31.00;;;16.63;;
19733;SDS011;10018;51.230;7.860;2023-11-21T10:13:36;36.10;;;15.90;;
19733;SDS011;10018;51.230;7.860;2023-11-21T10:16:03;32.33;;;15.73;;
19733;SDS011;10018;51.230;7.860;2023-11-21T10:18:32;27.70;;;15.97;;
19733;SDS011;10018;51.230;7.860;2023-11-21T10:20:59;29.93;;;15.50;;
19733;SDS011;10018;51.230;7.860;2023-11-21T10:23:25;29.70;;;14.50;;
19733;SDS011;10018;51.230;7.860;2023-11-21T10:25:52;29.37;;;14.93;;
19733;SDS011;10018;51.230;7.860;2023-11-21T10:28:19;30.30;;;14.87;;
19733;SDS011;10018;51.230;7.860;2023-11-21T10:30:46;31.33;;;15.13;;
19733;SDS011;10018;51.230;7.860;2023-11-21T10:33:11;29.23;;;14.63;;
19733;SDS011;10018;51.230;7.860;2023-11-21T10:35:44;27.23;;;13.60;;
19733;SDS011;10018;51.230;7.860;2023-11-21T10:38:20;35.17;;;14.23;;
19733;SDS011;10018;51.230;7.860;2023-11-21T10:40:48;29.63;;;13.23;;
19733;SDS011;10018;51.230;7.860;2023-11-21T10:43:14;28.03;;;13.37;;
19733;SDS011;10018;51.230;7.860;2023-11-21T10:45:41;31.07;;;14.13;;
19733;SDS011;10018;51.230;7.860;2023-11-21T10:48:10;30.77;;;13.50;;
19733;SDS011;10018;51.230;7.860;2023-11-21T10:50:41;30.43;;;13.90;;
19733;SDS011;10018;51.230;7.860;2023-11-21T10:53:08;27.67;;;13.20;;
19733;SDS011;10018;51.230;7.860;2023-11-21T10:55:34;31.37;;;14.13;;
19733;SDS011;10018;51.230;7.860;2023-11-21T10:58:00;25.03;;;12.83;;
19733;SDS011;10018;51.230;7.860;2023-11-21T11:00:28;29.23;;;12.60;;
19733;SDS011;10018;51.230;7.860;2023-11-21T11:02:55;27.00;;;13.17;;
19733;SDS011;10018;51.230;7.860;2023-11-21T11:05:21;25.70;;;13.23;;
19733;SDS011;10018;51.230;7.860;2023-11-21T11:07:50;25.27;;;12.77;;
19733;SDS011;10018;51.230;7.860;2023-11-21T11:10:19;32.63;;;14.43;;
19733;SDS011;10018;51.230;7.860;2023-11-21T11:12:51;29.97;;;13.97;;
19733;SDS011;10018;51.230;7.860;2023-11-21T11:15:20;25.50;;;12.70;;
19733;SDS011;10018;51.230;7.860;2023-11-21T11:17:47;34.40;;;15.50;;
19733;SDS011;10018;51.230;7.860;2023-11-21T11:20:16;30.23;;;16.60;;
19733;SDS011;10018;51.230;7.860;2023-11-21T11:33:27;33.10;;;14.13;;
19733;SDS011;10018;51.230;7.860;2023-11-21T11:38:33;31.23;;;14.17;;
19733;SDS011;10018;51.230;7.860;2023-11-21T11:41:03;34.60;;;14.57;;
19733;SDS011;10018;51.230;7.860;2023-11-21T11:43:31;30.67;;;12.73;;
19733;SDS011;10018;51.230;7.860;2023-11-21T11:46:08;33.30;;;13.03;;
19733;SDS011;10018;51.230;7.860;2023-11-21T11:48:37;27.23;;;13.37;;
19733;SDS011;10018;51.230;7.860;2023-11-21T11:51:10;27.93;;;13.23;;
19733;SDS011;10018;51.230;7.860;2023-11-21T11:53:39;24.90;;;11.70;;
19733;SDS011;10018;51.230;7.860;2023-11-21T11:58:59;31.03;;;14.07;;
19733;SDS011;10018;51.230;7.860;2023-11-21T12:01:27;32.37;;;15.27;;
19733;SDS011;10018;51.230;7.860;2023-11-21T12:07:00;28.93;;;14.13;;
19733;SDS011;10018;51.230;7.860;2023-11-21T12:09:28;34.90;;;14.23;;
19733;SDS011;10018;51.230;7.860;2023-11-21T12:11:55;28.77;;;13.80;;
19733;SDS011;10018;51.230;7.860;2023-11-21T12:14:25;37.53;;;15.80;;
19733;SDS011;10018;51.230;7.860;2023-11-21T12:16:50;28.97;;;14.57;;
19733;SDS011;10018;51.230;7.860;2023-11-21T12:19:17;31.10;;;14.27;;
19733;SDS011;10018;51.230;7.860;2023-11-21T12:21:42;29.73;;;14.97;;
19733;SDS011;10018;51.230;7.860;2023-11-21T12:24:09;32.20;;;14.07;;
19733;SDS011;10018;51.230;7.860;2023-11-21T12:26:38;34.60;;;13.70;;
19733;SDS011;10018;51.230;7.860;2023-11-21T12:29:04;27.37;;;12.10;;
19733;SDS011;10018;51.230;7.860;2023-11-21T12:31:35;21.03;;;11.37;;
19733;SDS011;10018;51.230;7.860;2023-11-21T12:34:03;22.97;;;11.37;;
19733;SDS011;10018;51.230;7.860;2023-11-21T12:36:31;20.57;;;9.47;;
19733;SDS011;10018;51.230;7.860;2023-11-21T12:38:59;16.77;;;8.10;;
19733;SDS011;10018;51.230;7.860;2023-11-21T12:41:25;15.30;;;8.50;;
19733;SDS011;10018;51.230;7.860;2023-11-21T12:43:51;14.20;;;8.30;;
19733;SDS011;10018;51.230;7.860;2023-11-21T12:46:16;16.07;;;9.30;;
19733;SDS011;10018;51.230;7.860;2023-11-21T12:48:45;20.10;;;10.33;;
19733;SDS011;10018;51.230;7.860;2023-11-21T12:51:12;15.20;;;8.00;;
19733;SDS011;10018;51.230;7.860;2023-11-21T12:53:41;14.00;;;8.03;;
19733;SDS011;10018;51.230;7.860;2023-11-21T12:56:07;14.63;;;8.83;;
19733;SDS011;10018;51.230;7.860;2023-11-21T12:58:36;16.10;;;8.90;;
19733;SDS011;10018;51.230;7.860;2023-11-21T13:01:09;13.73;;;8.53;;
19733;SDS011;10018;51.230;7.860;2023-11-21T13:03:39;15.67;;;7.63;;
19733;SDS011;10018;51.230;7.860;2023-11-21T13:06:10;12.80;;;7.63;;
19733;SDS011;10018;51.230;7.860;2023-11-21T13:08:37;12.40;;;7.40;;
19733;SDS011;10018;51.230;7.860;2023-11-21T13:11:04;16.00;;;9.20;;
19733;SDS011;10018;51.230;7.860;2023-11-21T13:13:33;17.63;;;9.50;;
19733;SDS011;10018;51.230;7.860;2023-11-21T13:16:00;18.17;;;8.93;;
19733;SDS011;10018;51.230;7.860;2023-11-21T13:18:32;18.60;;;9.83;;
19733;SDS011;10018;51.230;7.860;2023-11-21T13:20:59;15.07;;;9.63;;
19733;SDS011;10018;51.230;7.860;2023-11-21T13:23:28;15.03;;;8.27;;
19733;SDS011;10018;51.230;7.860;2023-11-21T13:25:54;15.20;;;8.03;;
19733;SDS011;10018;51.230;7.860;2023-11-21T13:28:20;12.00;;;7.07;;
19733;SDS011;10018;51.230;7.860;2023-11-21T13:30:47;12.50;;;6.67;;
19733;SDS011;10018;51.230;7.860;2023-11-21T13:33:13;12.20;;;6.43;;
19733;SDS011;10018;51.230;7.860;2023-11-21T13:35:45;11.30;;;5.80;;
19733;SDS011;10018;51.230;7.860;2023-11-21T13:38:17;12.43;;;6.70;;
19733;SDS011;10018;51.230;7.860;2023-11-21T13:40:46;13.07;;;7.30;;
19733;SDS011;10018;51.230;7.860;2023-11-21T13:43:18;13.53;;;7.57;;
19733;SDS011;10018;51.230;7.860;2023-11-21T13:45:49;18.93;;;9.67;;
19733;SDS011;10018;51.230;7.860;2023-11-21T13:48:20;16.90;;;8.73;;
19733;SDS011;10018;51.230;7.860;2023-11-21T13:50:53;17.93;;;9.93;;
19733;SDS011;10018;51.230;7.860;2023-11-21T13:53:26;22.70;;;10.80;;
19733;SDS011;10018;51.230;7.860;2023-11-21T13:55:53;23.30;;;10.97;;
19733;SDS011;10018;51.230;7.860;2023-11-21T13:58:19;37.13;;;21.33;;
19733;SDS011;10018;51.230;7.860;2023-11-21T14:01:05;22.93;;;12.50;;
19733;SDS011;10018;51.230;7.860;2023-11-21T14:03:33;26.33;;;13.10;;
19733;SDS011;10018;51.230;7.860;2023-11-21T14:06:09;24.50;;;11.77;;
19733;SDS011;10018;51.230;7.860;2023-11-21T14:08:39;30.77;;;16.07;;
19733;SDS011;10018;51.230;7.860;2023-11-21T14:11:06;32.63;;;18.77;;
19733;SDS011;10018;51.230;7.860;2023-11-21T14:13:32;43.33;;;22.20;;
19733;SDS011;10018;51.230;7.860;2023-11-21T14:15:58;29.20;;;14.07;;
19733;SDS011;10018;51.230;7.860;2023-11-21T14:18:26;29.90;;;14.33;;
19733;SDS011;10018;51.230;7.860;2023-11-21T14:21:15;27.53;;;13.50;;
19733;SDS011;10018;51.230;7.860;2023-11-21T14:23:43;27.77;;;13.33;;
19733;SDS011;10018;51.230;7.860;2023-11-21T14:26:10;24.00;;;12.67;;
19733;SDS011;10018;51.230;7.860;2023-11-21T14:28:40;22.20;;;11.50;;
19733;SDS011;10018;51.230;7.860;2023-11-21T14:31:06;37.07;;;23.90;;
19733;SDS011;10018;51.230;7.860;2023-11-21T14:33:33;28.77;;;16.80;;
19733;SDS011;10018;51.230;7.860;2023-11-21T14:35:58;20.63;;;10.37;;
19733;SDS011;10018;51.230;7.860;2023-11-21T14:38:24;47.07;;;29.77;;
19733;SDS011;10018;51.230;7.860;2023-11-21T14:40:49;18.13;;;10.60;;
19733;SDS011;10018;51.230;7.860;2023-11-21T14:43:15;28.37;;;18.73;;